Time;durP1;ratioP1;P1;durP2;ratioP2;P2;SDS_P1;SDS_P2;PMS_P1;PMS_P2;Temp;Humidity;BMP_temperature;BMP_pressure;BME280_temperature;BME280_humidity;BME280_pressure;Samples;Min_cycle;Max_cycle;Signal;HPM_P1;HPM_P2
2021/11/08 00:02:00;;;;;;;;;8.25;4.00;;;;;7.97;70.86;101176.19;5056006;28;45291;-77
2021/11/08 00:04:25;;;;;;;;;9.25;3.00;;;;;7.97;70.90;101170.00;5055674;28;45254;-77
2021/11/08 00:06:51;;;;;;;;;5.75;4.75;;;;;7.95;70.60;101172.72;5055349;28;46960;-78
2021/11/08 00:09:17;;;;;;;;;6.00;4.50;;;;;7.94;70.86;101177.16;5055497;28;45310;-77
2021/11/08 00:11:43;;;;;;;;;7.00;4.75;;;;;7.94;70.82;101178.94;5055609;28;45236;-77
2021/11/08 00:14:12;;;;;;;;;5.75;3.00;;;;;7.88;70.60;101161.50;5058434;28;45132;-77
2021/11/08 00:16:53;;;;;;;;;7.25;3.25;;;;;7.88;70.60;101166.78;5058697;28;46919;-78
2021/11/08 00:22:02;;;;;;;;;5.00;3.00;;;;;7.79;71.15;101172.38;5058677;28;45248;-77
2021/11/08 00:24:31;;;;;;;;;7.00;4.25;;;;;7.80;70.88;101171.47;5057368;28;45372;-78
2021/11/08 00:26:56;;;;;;;;;7.75;5.00;;;;;7.73;70.79;101156.72;5058701;28;46221;-77
2021/11/08 00:29:22;;;;;;;;;8.00;4.25;;;;;7.76;71.09;101173.34;5058178;28;45126;-77
2021/11/08 00:31:48;;;;;;;;;6.75;5.75;;;;;7.73;70.34;101175.25;5059026;28;45527;-78
2021/11/08 00:34:14;;;;;;;;;8.00;3.25;;;;;7.71;70.90;101171.75;5058301;28;45223;-77
2021/11/08 00:36:39;;;;;;;;;8.75;3.00;;;;;7.69;70.92;101169.16;5056963;28;46178;-77
2021/11/08 00:39:05;;;;;;;;;9.25;3.00;;;;;7.68;71.15;101177.16;5058438;28;45256;-77
2021/11/08 00:41:31;;;;;;;;;4.00;4.00;;;;;7.58;71.36;101163.38;5058625;28;45369;-77
2021/11/08 00:43:57;;;;;;;;;10.75;5.25;;;;;7.63;71.58;101164.09;5058679;28;45222;-77
2021/11/08 00:46:23;;;;;;;;;5.25;4.00;;;;;7.63;71.43;101158.78;5058129;28;46327;-77
2021/11/08 00:48:49;;;;;;;;;4.00;4.00;;;;;7.63;71.83;101171.19;5058583;28;45250;-77
2021/11/08 00:51:15;;;;;;;;;9.00;5.50;;;;;7.60;72.02;101178.28;5058683;28;45252;-78
2021/11/08 00:53:41;;;;;;;;;5.75;4.00;;;;;7.58;72.31;101172.19;5056764;28;45369;-77
2021/11/08 00:56:11;;;;;;;;;14.25;5.00;;;;;7.54;72.30;101159.97;5058371;28;45163;-77
2021/11/08 00:58:39;;;;;;;;;8.25;5.00;;;;;7.60;72.43;101173.00;5058587;28;45761;-78
2021/11/08 01:01:07;;;;;;;;;8.50;4.00;;;;;7.59;72.03;101170.41;5058285;28;45436;-77
2021/11/08 01:03:36;;;;;;;;;8.25;5.25;;;;;7.63;71.78;101177.31;5058185;28;45276;-78
2021/11/08 01:06:02;;;;;;;;;11.75;5.00;;;;;7.63;71.87;101168.53;5057797;28;47107;-77
2021/11/08 01:08:28;;;;;;;;;9.75;6.00;;;;;7.64;72.03;101178.19;5057675;28;45191;-77
2021/11/08 01:10:55;;;;;;;;;11.50;6.50;;;;;7.63;71.67;101182.63;5058165;28;45215;-77
2021/11/08 01:13:20;;;;;;;;;4.75;4.50;;;;;7.62;71.87;101180.03;5058507;28;45070;-78
2021/11/08 01:15:45;;;;;;;;;5.50;4.25;;;;;7.62;72.16;101177.38;5057809;28;45325;-77
2021/11/08 01:18:11;;;;;;;;;11.00;7.25;;;;;7.62;71.91;101172.94;5058089;28;45297;-78
2021/11/08 01:20:44;;;;;;;;;13.00;6.00;;;;;7.54;71.81;101165.25;5058016;28;45148;-77
2021/11/08 01:23:11;;;;;;;;;6.25;4.25;;;;;7.62;72.45;101178.22;5057890;28;45201;-77
2021/11/08 01:25:36;;;;;;;;;12.00;5.75;;;;;7.62;72.14;101167.63;5057755;28;46117;-77
2021/11/08 01:28:04;;;;;;;;;4.00;3.00;;;;;7.61;72.17;101168.59;5058005;28;45195;-78
2021/11/08 01:30:30;;;;;;;;;9.00;4.25;;;;;7.62;72.09;101178.22;5057356;28;45215;-78
2021/11/08 01:33:06;;;;;;;;;6.25;4.00;;;;;7.63;72.38;101163.22;5058294;28;45214;-77
2021/11/08 01:35:45;;;;;;;;;4.75;4.75;;;;;7.63;71.87;101160.59;5057448;28;46049;-77
2021/11/08 01:38:23;;;;;;;;;4.75;4.75;;;;;7.64;72.15;101163.19;5057504;28;45162;-77
2021/11/08 01:40:50;;;;;;;;;6.75;5.00;;;;;7.56;71.79;101151.97;5057807;28;45225;-77
2021/11/08 01:43:16;;;;;;;;;6.00;4.00;;;;;7.64;72.04;101151.72;5057929;28;45237;-78
2021/11/08 01:45:42;;;;;;;;;7.50;4.25;;;;;7.64;71.94;101151.72;5057315;28;46445;-77
2021/11/08 01:48:08;;;;;;;;;5.00;4.75;;;;;7.62;72.26;101154.41;5057568;28;45183;-78
2021/11/08 01:50:34;;;;;;;;;9.50;5.50;;;;;7.62;72.33;101159.69;5057458;28;45080;-77
2021/11/08 01:53:00;;;;;;;;;6.00;5.50;;;;;7.64;71.84;101157.00;5057711;28;45185;-77
2021/11/08 01:55:26;;;;;;;;;6.00;4.00;;;;;7.63;72.11;101160.59;5057095;28;45329;-77
2021/11/08 01:57:52;;;;;;;;;11.00;5.50;;;;;7.62;72.02;101146.47;5057377;28;45226;-77
2021/11/08 02:00:18;;;;;;;;;7.25;4.50;;;;;7.61;71.81;101147.41;5057008;28;45265;-77
2021/11/08 02:02:44;;;;;;;;;5.50;4.00;;;;;7.55;71.99;101137.88;5057581;28;45258;-77
2021/11/08 02:05:10;;;;;;;;;7.25;4.25;;;;;7.54;71.15;101143.22;5056864;28;45299;-77
2021/11/08 02:07:36;;;;;;;;;5.75;3.50;;;;;7.49;71.01;101146.00;5057089;28;45236;-77
2021/11/08 02:10:07;;;;;;;;;6.25;4.50;;;;;7.46;70.89;101153.19;5057168;28;45297;-77
2021/11/08 02:12:32;;;;;;;;;4.00;4.00;;;;;7.36;70.80;101148.19;5057252;28;45238;-78
2021/11/08 02:14:59;;;;;;;;;9.75;4.00;;;;;7.26;70.86;101138.84;5056978;28;45363;-77
2021/11/08 02:17:24;;;;;;;;;12.00;5.00;;;;;7.30;71.12;101150.19;5056784;28;45250;-77
2021/11/08 02:19:56;;;;;;;;;17.75;7.00;;;;;7.24;71.70;101140.69;5056681;28;45284;-77
2021/11/08 02:22:22;;;;;;;;;5.00;5.00;;;;;7.18;72.02;101136.44;5057238;28;45276;-77
2021/11/08 02:24:48;;;;;;;;;7.25;4.75;;;;;7.19;72.02;101140.81;5056561;28;47132;-77
2021/11/08 02:27:14;;;;;;;;;6.25;4.75;;;;;7.19;72.62;101145.25;5057039;28;45286;-77
2021/11/08 02:29:39;;;;;;;;;8.50;6.00;;;;;7.19;72.29;101147.88;5056790;28;45250;-77
2021/11/08 02:32:05;;;;;;;;;14.75;5.00;;;;;7.19;72.64;101137.31;5056924;28;45293;-78
2021/11/08 02:34:30;;;;;;;;;11.00;5.00;;;;;7.09;72.72;101121.72;5056583;28;45587;-77
2021/11/08 02:36:56;;;;;;;;;7.25;5.00;;;;;7.20;72.20;101139.03;5056181;28;45286;-77
2021/11/08 02:39:29;;;;;;;;;5.75;5.25;;;;;7.20;72.51;101131.97;5056683;28;45473;-78
2021/11/08 02:41:55;;;;;;;;;10.25;4.00;;;;;7.18;72.23;101135.56;5056860;28;45271;-77
2021/11/08 02:44:21;;;;;;;;;5.75;3.25;;;;;7.18;71.90;101139.09;5056650;28;46532;-77
2021/11/08 02:46:47;;;;;;;;;7.25;4.25;;;;;7.16;71.52;101134.75;5056594;28;45112;-77
2021/11/08 02:49:15;;;;;;;;;6.25;3.75;;;;;7.11;71.64;101134.88;5056550;28;45133;-77
2021/11/08 02:51:49;;;;;;;;;9.00;5.00;;;;;7.02;71.36;101124.63;5056806;28;45272;-78
2021/11/08 02:54:27;;;;;;;;;2.50;2.50;;;;;6.95;71.38;101128.38;5056360;28;46023;-77
2021/11/08 02:56:53;;;;;;;;;5.50;4.00;;;;;6.90;72.28;101137.28;5056170;28;45614;-77
2021/11/08 02:59:19;;;;;;;;;9.75;4.75;;;;;6.81;72.08;101124.38;5056423;28;45294;-77
2021/11/08 03:01:47;;;;;;;;;5.75;2.00;;;;;6.83;71.79;101132.25;5056607;28;45218;-77
2021/11/08 03:04:16;;;;;;;;;8.50;4.00;;;;;6.80;72.19;101140.25;5056450;28;46081;-77
2021/11/08 03:06:41;;;;;;;;;4.00;3.00;;;;;6.87;72.49;101150.63;5056124;28;45624;-77
2021/11/08 03:09:19;;;;;;;;;5.25;5.00;;;;;6.85;71.75;101155.06;5056427;28;45262;-77
2021/11/08 03:11:45;;;;;;;;;6.25;4.00;;;;;6.81;71.87;101153.44;5056426;28;45380;-77
2021/11/08 03:14:16;;;;;;;;;6.75;4.50;;;;;6.76;72.08;101149.22;5056337;28;45334;-77
2021/11/08 03:21:43;;;;;;;;;8.25;3.50;;;;;6.76;72.33;101154.50;5056205;28;45169;-77
2021/11/08 03:24:16;;;;;;;;;5.50;4.00;;;;;6.72;72.95;101143.13;5056208;28;46591;-77
2021/11/08 03:29:11;;;;;;;;;6.75;2.25;;;;;6.81;73.05;101152.56;5055999;28;45264;-77
2021/11/08 03:31:36;;;;;;;;;4.00;4.00;;;;;6.78;72.07;101147.38;5056035;28;45187;-77
2021/11/08 03:34:02;;;;;;;;;7.25;3.75;;;;;6.80;71.99;101158.75;5056140;28;46146;-77
2021/11/08 03:36:28;;;;;;;;;4.25;3.00;;;;;6.78;72.12;101163.22;5054440;28;45168;-77
2021/11/08 03:38:54;;;;;;;;;2.00;1.00;;;;;6.70;71.67;101151.13;5055963;28;45154;-77
2021/11/08 03:41:19;;;;;;;;;4.75;3.25;;;;;6.73;71.56;101155.44;5055944;28;45232;-77
2021/11/08 03:43:44;;;;;;;;;11.25;4.00;;;;;6.70;71.77;101166.13;5056046;28;45135;-77
2021/11/08 03:46:10;;;;;;;;;4.50;4.00;;;;;6.66;71.78;101162.69;5055727;28;45247;-77
2021/11/08 03:48:35;;;;;;;;;9.25;4.00;;;;;6.65;71.97;101168.88;5058338;28;45138;-77
2021/11/08 03:51:02;;;;;;;;;4.75;3.00;;;;;6.57;71.79;101157.69;5059502;28;45114;-77
2021/11/08 03:53:27;;;;;;;;;6.25;3.00;;;;;6.59;71.95;101160.28;5059403;28;45449;-77
2021/11/08 03:55:53;;;;;;;;;5.00;4.00;;;;;6.57;71.56;101160.31;5059536;28;45147;-77
2021/11/08 03:58:19;;;;;;;;;3.75;3.00;;;;;6.52;71.53;101160.44;5059283;28;45154;-77
2021/11/08 04:00:45;;;;;;;;;8.00;4.00;;;;;6.44;71.58;101146.59;5059229;28;45380;-77
2021/11/08 04:03:11;;;;;;;;;6.00;3.00;;;;;6.46;71.71;101136.00;5058770;28;46947;-77
2021/11/08 04:05:40;;;;;;;;;8.25;4.00;;;;;6.44;71.91;101135.16;5058657;28;45789;-77
2021/11/08 04:08:13;;;;;;;;;4.00;2.25;;;;;6.37;71.60;101140.63;5059281;28;45228;-77
2021/11/08 04:10:41;;;;;;;;;5.00;2.00;;;;;6.31;72.13;101139.91;5059202;28;45244;-77
2021/11/08 04:13:08;;;;;;;;;4.50;3.50;;;;;6.24;72.45;101128.66;5058808;28;46266;-77
2021/11/08 04:15:38;;;;;;;;;3.00;1.25;;;;;6.31;72.38;101146.06;5058977;28;45124;-77
2021/11/08 04:18:11;;;;;;;;;5.25;3.25;;;;;6.32;72.41;101146.94;5059170;28;45232;-77
2021/11/08 04:20:40;;;;;;;;;4.00;4.00;;;;;6.31;72.34;101151.34;5058932;28;45245;-77
2021/11/08 04:23:06;;;;;;;;;4.25;3.75;;;;;6.32;72.00;101154.88;5058510;28;46338;-78
2021/11/08 04:25:31;;;;;;;;;4.50;3.25;;;;;6.29;72.01;101147.88;5058903;28;45143;-77
2021/11/08 04:27:57;;;;;;;;;7.00;3.00;;;;;6.25;72.16;101150.66;5059258;28;45200;-77
2021/11/08 04:30:25;;;;;;;;;6.75;3.00;;;;;6.27;72.25;101160.28;5058626;28;45370;-77
2021/11/08 04:35:40;;;;;;;;;6.25;4.00;;;;;6.21;72.64;101161.31;5058626;28;45207;-77
2021/11/08 04:41:06;;;;;;;;;3.75;3.50;;;;;6.17;73.72;101154.38;5058573;28;45225;-77
2021/11/08 04:51:49;;;;;;;;;10.00;5.00;;;;;6.35;73.45;101157.41;5058421;28;45198;-77
2021/11/08 05:32:15;;;;;;;;;9.00;5.25;;;;;6.44;73.31;101161.56;4956728;28;45213;-77
2021/11/08 05:34:40;;;;;;;;;8.00;5.00;;;;;6.42;73.26;101152.84;4987692;28;45251;-77
2021/11/08 05:37:08;;;;;;;;;6.50;5.00;;;;;6.41;73.17;101153.72;5042947;28;45662;-78
2021/11/08 05:39:34;;;;;;;;;9.50;4.75;;;;;6.46;73.48;101162.41;5057366;28;45293;-78
2021/11/08 05:42:02;;;;;;;;;5.25;5.00;;;;;6.47;73.14;101165.00;5057687;28;45198;-77
2021/11/08 05:44:27;;;;;;;;;5.00;4.25;;;;;6.47;72.62;101172.03;5057121;28;45278;-77
2021/11/08 05:46:52;;;;;;;;;8.00;5.75;;;;;6.42;72.66;101166.91;5057104;28;45214;-77
2021/11/08 05:49:18;;;;;;;;;8.75;4.00;;;;;6.39;72.86;101170.47;5057340;28;45225;-78
2021/11/08 05:51:43;;;;;;;;;6.50;5.25;;;;;6.38;72.51;101181.09;5057830;28;45155;-79
2021/11/08 05:54:09;;;;;;;;;9.00;8.50;;;;;6.36;72.78;101172.38;5057295;28;45243;-79
2021/11/08 06:00:25;;;;;;;;;7.50;5.00;;;;;6.34;72.81;101180.34;5015016;28;45339;-79
2021/11/08 06:51:19;;;;;;;;;7.50;5.50;;;;;6.51;72.96;101224.78;5056533;28;45865;-77
2021/11/08 06:53:46;;;;;;;;;10.00;7.00;;;;;6.58;72.38;101238.66;5056291;28;45201;-77
2021/11/08 06:56:12;;;;;;;;;4.50;4.00;;;;;6.58;72.92;101236.00;5056500;28;45286;-78
2021/11/08 06:58:38;;;;;;;;;4.50;4.25;;;;;6.52;72.82;101230.91;5056859;28;45179;-77
2021/11/08 07:01:04;;;;;;;;;11.00;8.50;;;;;6.52;72.99;101231.75;5056626;28;45191;-77
2021/11/08 07:03:29;;;;;;;;;4.00;3.25;;;;;6.51;73.06;101237.09;5056663;28;45202;-77
2021/11/08 07:05:55;;;;;;;;;10.50;5.00;;;;;6.55;73.77;101242.25;5055760;28;45186;-77
2021/11/08 07:08:20;;;;;;;;;6.50;5.50;;;;;6.62;73.92;101245.59;5056213;28;45246;-77
2021/11/08 07:10:46;;;;;;;;;6.50;4.50;;;;;6.67;73.73;101242.81;5055869;28;46122;-77
2021/11/08 07:13:11;;;;;;;;;11.50;4.25;;;;;6.69;73.25;101247.16;5055379;28;45347;-77
2021/11/08 07:15:37;;;;;;;;;6.25;6.25;;;;;6.70;73.22;101248.03;5055984;28;45195;-77
2021/11/08 07:18:03;;;;;;;;;10.50;8.00;;;;;6.71;72.86;101249.75;5055862;28;45227;-78
2021/11/08 07:20:29;;;;;;;;;7.50;4.50;;;;;6.77;72.76;101259.28;5055726;28;45458;-78
2021/11/08 07:22:55;;;;;;;;;4.50;4.00;;;;;6.73;73.06;101256.72;5058804;28;45475;-77
2021/11/08 07:25:21;;;;;;;;;8.25;5.00;;;;;6.64;73.26;101256.13;5059420;28;45103;-77
2021/11/08 07:27:46;;;;;;;;;9.75;5.00;;;;;6.63;73.73;101252.63;5059657;28;45130;-77
2021/11/08 07:30:13;;;;;;;;;10.00;6.75;;;;;6.71;73.41;101257.69;5059086;28;46213;-77
2021/11/08 07:32:38;;;;;;;;;9.50;8.25;;;;;6.74;73.64;101261.13;5058938;28;45276;-77
2021/11/08 07:35:05;;;;;;;;;9.00;6.75;;;;;6.77;73.54;101264.56;5059315;28;45232;-77
2021/11/08 07:37:31;;;;;;;;;7.50;5.00;;;;;6.78;73.32;101272.47;5059137;28;45134;-77
2021/11/08 07:39:56;;;;;;;;;6.00;4.25;;;;;6.80;73.60;101269.75;5058924;28;47022;-77
2021/11/08 07:42:22;;;;;;;;;5.75;5.00;;;;;6.80;73.57;101275.94;5059054;28;45333;-77
2021/11/08 07:44:49;;;;;;;;;10.50;6.25;;;;;6.84;73.71;101271.41;5058753;28;45304;-78
2021/11/08 07:47:15;;;;;;;;;5.75;4.75;;;;;6.88;73.39;101283.63;5059630;28;45267;-77
2021/11/08 07:49:40;;;;;;;;;10.00;7.75;;;;;6.93;73.69;101283.50;5058588;28;46235;-77
2021/11/08 07:52:08;;;;;;;;;8.25;7.25;;;;;6.96;73.71;101283.44;5057303;28;45258;-77
2021/11/08 07:54:34;;;;;;;;;6.25;4.50;;;;;7.02;73.18;101283.25;5058523;28;45340;-77
2021/11/08 07:57:01;;;;;;;;;5.75;4.00;;;;;7.05;73.58;101291.97;5059380;28;45144;-77
2021/11/08 07:59:26;;;;;;;;;5.00;5.00;;;;;7.08;73.70;101289.25;5059329;28;45137;-77
2021/11/08 08:01:52;;;;;;;;;8.00;5.00;;;;;7.14;73.28;101284.66;5059356;28;45186;-77
2021/11/08 08:04:18;;;;;;;;;9.50;4.75;;;;;7.16;73.25;101285.50;5059282;28;45159;-77
2021/11/08 08:06:45;;;;;;;;;5.25;5.00;;;;;7.19;73.27;101283.63;5059708;28;45201;-77
2021/11/08 08:09:11;;;;;;;;;8.25;5.00;;;;;7.24;73.58;101292.31;5059237;28;45209;-77
2021/11/08 08:11:36;;;;;;;;;7.25;5.25;;;;;7.33;73.69;101292.94;5059392;28;45261;-77
2021/11/08 08:14:01;;;;;;;;;9.00;8.75;;;;;7.38;73.65;101283.97;5058971;28;45156;-77
2021/11/08 08:16:27;;;;;;;;;9.50;5.25;;;;;7.47;73.33;101290.75;5059367;28;45191;-78
2021/11/08 08:18:54;;;;;;;;;11.50;6.00;;;;;7.51;73.47;101280.91;5058771;28;45745;-77
2021/11/08 08:21:20;;;;;;;;;6.00;5.00;;;;;7.54;73.26;101286.09;5058864;28;45228;-77
2021/11/08 08:23:49;;;;;;;;;10.75;6.00;;;;;7.66;73.15;101291.03;5058763;28;45206;-77
2021/11/08 08:26:15;;;;;;;;;7.50;6.00;;;;;7.75;73.42;101290.75;5059318;28;45301;-77
2021/11/08 08:28:40;;;;;;;;;9.50;4.75;;;;;7.86;72.91;101293.03;5058776;28;45981;-77
2021/11/08 08:31:06;;;;;;;;;10.25;6.00;;;;;7.97;72.83;101287.41;5058280;28;45157;-77
2021/11/08 08:33:32;;;;;;;;;8.00;7.00;;;;;8.08;73.48;101287.91;5057465;28;45204;-77
2021/11/08 08:35:58;;;;;;;;;11.25;8.00;;;;;8.21;73.50;101293.69;5057852;28;45220;-77
2021/11/08 08:38:24;;;;;;;;;6.25;5.25;;;;;8.33;73.59;101287.09;5058227;28;45211;-77
2021/11/08 08:40:51;;;;;;;;;6.75;6.00;;;;;8.48;73.44;101291.03;5058277;28;45237;-77
2021/11/08 08:43:18;;;;;;;;;11.50;7.00;;;;;8.55;73.23;101284.59;5056490;28;45159;-78
2021/11/08 08:45:44;;;;;;;;;12.25;8.25;;;;;8.73;72.98;101295.47;5058083;28;45189;-78
2021/11/08 08:48:11;;;;;;;;;12.50;7.50;;;;;8.80;72.62;101295.19;5057837;28;46285;-78
2021/11/08 08:50:38;;;;;;;;;8.00;8.00;;;;;8.92;72.60;101298.31;5057907;28;45790;-77
2021/11/08 08:53:04;;;;;;;;;14.25;11.50;;;;;9.04;72.42;101305.81;5058076;28;45245;-77
2021/11/08 08:55:30;;;;;;;;;12.25;10.50;;;;;9.06;72.23;101296.00;5058173;28;45197;-78
2021/11/08 08:57:56;;;;;;;;;15.00;9.75;;;;;9.22;72.13;101306.06;5057733;28;45229;-77
2021/11/08 09:00:22;;;;;;;;;13.50;9.25;;;;;9.27;71.45;101315.56;5057662;28;45229;-77
2021/11/08 09:02:53;;;;;;;;;8.50;7.00;;;;;9.29;71.34;101308.44;5056593;28;45126;-77
2021/11/08 09:05:20;;;;;;;;;8.00;6.75;;;;;9.46;71.08;101315.75;5057688;28;45203;-77
2021/11/08 09:07:46;;;;;;;;;6.75;5.75;;;;;9.57;70.74;101306.50;5057473;28;45881;-77
2021/11/08 09:10:12;;;;;;;;;9.50;6.00;;;;;9.68;70.67;101304.28;5057398;28;45601;-77
2021/11/08 09:12:39;;;;;;;;;9.75;7.00;;;;;9.80;70.93;101306.44;5057988;28;45451;-77
2021/11/08 09:15:05;;;;;;;;;9.25;9.25;;;;;9.73;70.75;101275.75;5057319;28;45225;-77
2021/11/08 09:17:31;;;;;;;;;8.50;6.75;;;;;10.05;70.08;101312.53;5057585;28;45272;-77
2021/11/08 09:19:56;;;;;;;;;9.00;8.00;;;;;10.13;69.96;101310.44;5057866;28;45230;-78
2021/11/08 09:22:22;;;;;;;;;10.00;7.00;;;;;10.22;69.63;101311.84;5058201;28;45210;-77
2021/11/08 09:24:47;;;;;;;;;6.25;5.00;;;;;10.23;69.74;101301.16;5057360;28;45274;-77
2021/11/08 09:27:13;;;;;;;;;9.50;6.00;;;;;10.41;69.40;101319.97;5057560;28;45202;-77
2021/11/08 09:29:38;;;;;;;;;9.00;6.00;;;;;10.49;69.32;101318.72;5056454;28;45111;-77
2021/11/08 09:32:04;;;;;;;;;10.25;7.00;;;;;10.54;69.37;101321.16;5058337;28;45211;-77
2021/11/08 09:34:29;;;;;;;;;12.50;10.00;;;;;10.61;69.18;101313.78;5057708;28;45159;-77
2021/11/08 09:36:58;;;;;;;;;15.25;10.50;;;;;10.73;68.67;101317.72;5056943;28;45988;-77
2021/11/08 09:39:27;;;;;;;;;13.50;9.75;;;;;10.74;68.71;101312.31;5056632;28;45545;-77
2021/11/08 09:41:57;;;;;;;;;12.50;8.75;;;;;10.81;68.62;101312.91;5057164;28;45720;-77
2021/11/08 09:44:24;;;;;;;;;10.75;7.00;;;;;10.83;68.82;101300.41;5057400;28;45166;-77
2021/11/08 09:46:51;;;;;;;;;12.75;8.75;;;;;10.92;68.60;101315.13;5057337;28;46126;-77
2021/11/08 09:49:17;;;;;;;;;11.50;9.75;;;;;10.98;68.10;101309.50;5057140;28;45158;-77
2021/11/08 09:51:45;;;;;;;;;9.00;8.00;;;;;11.06;67.98;101307.38;5057617;28;45179;-77
2021/11/08 09:54:12;;;;;;;;;17.00;10.50;;;;;11.14;68.34;101299.03;5055467;28;45392;-77
2021/11/08 09:56:42;;;;;;;;;11.25;8.00;;;;;11.33;67.65;101299.03;5057047;28;45279;-78
2021/11/08 09:59:09;;;;;;;;;15.00;9.25;;;;;11.58;67.10;101301.41;5055868;28;45764;-77
2021/11/08 10:01:37;;;;;;;;;14.50;7.25;;;;;11.83;66.58;101305.53;5057176;28;45319;-78
2021/11/08 10:04:04;;;;;;;;;9.50;7.75;;;;;12.13;66.20;101302.34;5057336;28;45225;-78
2021/11/08 10:06:31;;;;;;;;;10.25;9.25;;;;;12.56;65.66;101302.84;5056753;28;45308;-77
2021/11/08 10:08:58;;;;;;;;;12.75;8.25;;;;;13.02;64.63;101291.56;5056782;28;45564;-78
2021/11/08 10:11:24;;;;;;;;;13.75;11.75;;;;;13.49;63.96;101293.44;5057125;28;45173;-78
2021/11/08 10:13:51;;;;;;;;;11.00;10.00;;;;;13.92;63.25;101296.38;5055847;28;45159;-77
2021/11/08 10:16:21;;;;;;;;;11.25;9.75;;;;;14.25;61.25;101289.13;5056631;28;46425;-78
2021/11/08 10:18:49;;;;;;;;;12.75;7.50;;;;;14.36;60.96;101296.53;5057025;28;45277;-77
2021/11/08 10:21:18;;;;;;;;;14.50;6.00;;;;;14.57;60.87;101297.06;5057401;28;45151;-78
2021/11/08 10:23:50;;;;;;;;;7.75;7.75;;;;;14.84;60.23;101295.41;5056790;28;45444;-77
2021/11/08 10:26:28;;;;;;;;;12.50;7.75;;;;;15.26;59.99;101291.97;5056942;28;46464;-78
2021/11/08 10:29:07;;;;;;;;;10.50;8.00;;;;;15.72;58.81;101291.69;5056578;28;45342;-78
2021/11/08 10:31:36;;;;;;;;;13.50;5.25;;;;;16.18;57.46;101282.44;5056734;28;45124;-78
2021/11/08 10:34:05;;;;;;;;;9.75;6.00;;;;;16.58;55.96;101285.09;5056467;28;45119;-78
2021/11/08 10:36:31;;;;;;;;;5.25;5.25;;;;;16.94;55.39;101288.03;5056446;28;46219;-78
2021/11/08 10:38:59;;;;;;;;;10.00;6.00;;;;;17.16;54.22;101281.97;5056475;28;45306;-78
2021/11/08 10:41:31;;;;;;;;;11.00;4.25;;;;;17.21;54.17;101277.97;5056400;28;45314;-78
2021/11/08 10:44:03;;;;;;;;;4.50;3.50;;;;;17.10;53.41;101280.56;5056990;28;45303;-78
2021/11/08 10:46:34;;;;;;;;;10.00;4.25;;;;;16.90;53.37;101280.19;5056255;28;46433;-78
2021/11/08 10:49:06;;;;;;;;;3.00;3.00;;;;;16.84;53.12;101287.78;5056666;28;45556;-78
2021/11/08 10:51:33;;;;;;;;;2.00;2.00;;;;;16.91;52.58;101286.41;5057097;28;45250;-78
2021/11/08 10:54:02;;;;;;;;;7.75;4.00;;;;;17.04;52.60;101286.41;5056795;28;45242;-78
2021/11/08 10:56:31;;;;;;;;;4.75;2.00;;;;;17.27;52.19;101287.44;5055688;28;46157;-78
2021/11/08 10:59:00;;;;;;;;;4.50;2.00;;;;;17.57;51.53;101276.28;5055747;28;45499;-78
2021/11/08 11:01:39;;;;;;;;;4.25;2.00;;;;;17.93;50.82;101282.63;5056055;28;45115;-77
2021/11/08 11:04:05;;;;;;;;;6.75;4.00;;;;;18.20;49.72;101280.66;5056716;28;45412;-77
2021/11/08 11:06:38;;;;;;;;;5.00;2.00;;;;;18.37;49.55;101284.75;5056162;28;45175;-77
2021/11/08 11:09:14;;;;;;;;;6.75;3.25;;;;;18.56;49.43;101273.44;5056186;28;45201;-77
2021/11/08 11:11:40;;;;;;;;;2.00;2.00;;;;;18.80;48.81;101287.66;5056818;28;45323;-77
2021/11/08 11:14:06;;;;;;;;;3.25;2.00;;;;;18.97;47.39;101278.28;5056479;28;45265;-77
2021/11/08 11:16:53;;;;;;;;;2.00;2.00;;;;;19.13;47.12;101282.44;5056423;28;45614;-77
2021/11/08 11:19:19;;;;;;;;;4.25;2.00;;;;;19.31;46.11;101290.88;5055949;28;45484;-77
2021/11/08 11:22:00;;;;;;;;;2.75;1.75;;;;;19.39;45.29;101287.56;5056470;28;45201;-77
2021/11/08 11:24:55;;;;;;;;;2.00;2.00;;;;;19.48;45.22;101289.50;5056468;28;45233;-77
2021/11/08 11:27:23;;;;;;;;;1.50;1.50;;;;;19.61;44.99;101275.88;5042076;28;47633;-77
2021/11/08 11:29:49;;;;;;;;;3.00;2.00;;;;;19.78;44.69;101282.56;5055996;28;45222;-77
2021/11/08 11:32:25;;;;;;;;;1.75;0.00;;;;;19.92;43.84;101276.06;5056590;28;45229;-77
2021/11/08 11:34:52;;;;;;;;;2.25;1.50;;;;;20.01;43.59;101280.72;5056383;28;45110;-77
2021/11/08 11:37:21;;;;;;;;;2.00;2.00;;;;;20.04;43.80;101268.78;5056093;28;45207;-78
2021/11/08 11:39:47;;;;;;;;;2.25;1.25;;;;;20.05;42.07;101271.38;5055831;28;45294;-78
2021/11/08 11:42:13;;;;;;;;;4.00;2.00;;;;;19.90;42.56;101268.09;5056317;28;45261;-78
2021/11/08 11:44:38;;;;;;;;;2.00;1.00;;;;;19.78;42.86;101255.59;5054764;28;45159;-77
2021/11/08 11:47:14;;;;;;;;;3.00;2.00;;;;;19.87;42.98;101267.53;5055626;28;46252;-77
2021/11/08 11:49:45;;;;;;;;;1.50;1.25;;;;;19.91;42.18;101266.25;5055849;28;45455;-78
2021/11/08 11:52:11;;;;;;;;;4.25;2.00;;;;;19.88;42.42;101259.31;5056133;28;45173;-78
2021/11/08 11:54:38;;;;;;;;;1.00;1.00;;;;;19.92;42.14;101257.19;5056053;28;45233;-78
2021/11/08 11:57:05;;;;;;;;;3.00;2.00;;;;;19.77;41.98;101252.06;5055635;28;45615;-78
2021/11/08 11:59:31;;;;;;;;;3.75;1.25;;;;;19.55;42.01;101258.34;5055883;28;45321;-77
2021/11/08 12:01:57;;;;;;;;;2.50;2.00;;;;;19.28;42.47;101232.69;5054462;28;45216;-78
2021/11/08 12:04:24;;;;;;;;;2.00;0.00;;;;;19.19;42.40;101246.91;5056290;28;45339;-78
2021/11/08 12:06:54;;;;;;;;;6.00;2.00;;;;;19.03;42.93;101241.91;5056016;28;45226;-78
2021/11/08 12:09:20;;;;;;;;;3.25;0.75;;;;;18.82;42.95;101257.91;5056206;28;45435;-77
2021/11/08 12:11:53;;;;;;;;;3.00;2.00;;;;;18.59;42.25;101239.03;5058748;28;45264;-77
2021/11/08 12:14:20;;;;;;;;;4.00;1.00;;;;;18.53;43.40;101238.66;5058538;28;45249;-78
2021/11/08 12:16:53;;;;;;;;;1.00;1.00;;;;;18.50;43.85;101244.25;5058770;28;46108;-77
2021/11/08 12:19:20;;;;;;;;;4.00;2.00;;;;;18.50;43.17;101242.44;5058643;28;45249;-78
2021/11/08 12:21:47;;;;;;;;;2.50;2.00;;;;;18.48;43.57;101239.00;5058161;28;45259;-78
2021/11/08 12:24:27;;;;;;;;;1.75;1.75;;;;;18.49;43.99;101239.88;5058854;28;45221;-77
2021/11/08 12:27:06;;;;;;;;;2.00;2.00;;;;;18.50;43.41;101228.09;5058355;28;46568;-77
2021/11/08 12:29:31;;;;;;;;;6.25;3.00;;;;;18.42;43.31;101228.72;5058045;28;45284;-77
2021/11/08 12:32:03;;;;;;;;;4.75;2.50;;;;;18.44;44.14;101232.13;5058796;28;45186;-77
2021/11/08 12:34:37;;;;;;;;;3.50;3.00;;;;;18.45;43.36;101242.81;5058416;28;45247;-78
2021/11/08 12:37:03;;;;;;;;;5.75;2.00;;;;;18.43;43.76;101236.69;5058533;28;45249;-78
2021/11/08 12:39:29;;;;;;;;;5.00;3.00;;;;;18.39;43.51;101221.72;5057962;28;45524;-77
2021/11/08 12:42:02;;;;;;;;;5.00;2.75;;;;;18.41;43.99;101224.31;5058102;28;45223;-77
2021/11/08 12:44:40;;;;;;;;;9.50;3.00;;;;;18.40;43.57;101218.06;5058491;28;45336;-77
2021/11/08 12:47:08;;;;;;;;;5.75;2.00;;;;;18.40;43.84;101214.53;5057872;28;46259;-77
2021/11/08 12:49:41;;;;;;;;;4.00;3.00;;;;;18.41;44.23;101227.00;5057979;28;45469;-78
2021/11/08 12:52:15;;;;;;;;;6.50;3.00;;;;;18.40;43.49;101214.53;5058403;28;45298;-77
2021/11/08 12:54:45;;;;;;;;;5.00;2.00;;;;;18.29;43.40;101208.13;5057321;28;45043;-77
2021/11/08 12:57:12;;;;;;;;;3.00;2.00;;;;;18.10;43.71;101200.63;5058604;28;45155;-77
2021/11/08 12:59:50;;;;;;;;;7.00;2.75;;;;;17.96;44.16;101208.03;5058272;28;45582;-78
2021/11/08 13:02:42;;;;;;;;;2.50;2.50;;;;;17.92;44.48;101205.56;5058542;28;45185;-77
2021/11/08 13:05:24;;;;;;;;;3.50;2.75;;;;;17.94;43.71;101206.34;5058411;28;45309;-77
2021/11/08 13:07:49;;;;;;;;;4.00;4.00;;;;;17.93;44.18;101209.16;5058495;28;45292;-78
2021/11/08 13:10:37;;;;;;;;;3.75;2.50;;;;;18.00;44.53;101206.81;5058136;28;45356;-77
2021/11/08 13:13:08;;;;;;;;;4.00;3.00;;;;;18.04;44.15;101194.84;5058583;28;45216;-78
2021/11/08 13:15:38;;;;;;;;;5.25;3.00;;;;;18.06;44.52;101204.53;5058685;28;45126;-78
2021/11/08 13:18:06;;;;;;;;;3.50;2.75;;;;;18.04;44.03;101193.03;5057796;28;46284;-78
2021/11/08 13:20:37;;;;;;;;;6.50;6.50;;;;;18.05;44.76;101201.97;5057257;28;45622;-77
2021/11/08 13:23:14;;;;;;;;;5.25;2.50;;;;;18.03;44.44;101190.47;5058259;28;45201;-78
2021/11/08 13:25:46;;;;;;;;;5.75;3.50;;;;;17.91;44.41;101184.19;5058244;28;45323;-78
2021/11/08 13:28:16;;;;;;;;;7.00;3.75;;;;;17.86;44.95;101192.56;5057768;28;45282;-78